• Join FlightAware (Why Join?)
  • Login
  • US Flag 
01:26PM EDT


 

Airport Tracker/Info


-or-


 

Live Flight TrackerFlight Track Log ✈ VH-FGT ✈ 04-Aug-2013 ✈ YHMB / HMG - YBAS / ASP

Flight Track Log - Related Links

Times and Time Zones

All times are in EDT time to prevent confusion due to time zone crossing. See the VH-FGT flight status page for this flight to view local times or setup timezone preferences in your user account.

Time Position Orientation Groundspeed Altitude Reporting Facility
EDT Latitude Longitude Course Direction KTS MPH feet Rate Location/Type
07:28AM -23.9197 132.8792 82° East 2,700  Level Aus ATC (Calculated)
07:29AM -23.9119 132.9417 83° East 2,700  Level Aus ATC (Calculated)
07:31AM -23.9071 132.9869 83° East  Level Estimated
07:31AM -23.8973 133.0589 259° West 2,700  Level Aus ATC (Calculated)
07:32AM -23.9029 133.0261 83° East  Level Estimated
07:32AM -23.8845 133.1613 360° North 2,700  Level Aus ATC (Calculated)
07:33AM -23.8845 133.1613 84° East 2,700  Level Aus ATC (Calculated)
07:34AM -23.8805 133.2006 84° East  Level Estimated
07:35AM -23.8764 133.2399 84° East  Level Estimated
07:36AM -23.8724 133.2792 84° East  Level Estimated
07:36AM -23.8533 133.4079 82° East 2,700  Level Aus ATC (Calculated)
07:37AM -23.8458 133.4667 84° East 2,700  Level Aus ATC (Calculated)
07:38AM -23.8423 133.5060 84° East  Level Estimated
07:39AM -23.8388 133.5454 84° East  Level Estimated
07:40AM -23.8353 133.5847 84° East  Level Estimated
07:41AM -23.8318 133.6240 84° East  Level Estimated
07:41AM -23.8061 133.7754 258° West 2,700  Level Aus ATC (Calculated)
07:42AM -23.8283 133.6633 84° East  Level Estimated
07:43AM -23.8063 133.8182 90° East  Level Estimated
07:43AM -23.7927 133.8782 360° North 2,700  Level Aus ATC (Calculated)
07:44AM -23.7927 133.8782 360° North 1,800 -1,740 Descending Aus ATC (Calculated)
07:44AM -23.7927 133.8782 122° Southeast 1,800  Level Aus ATC (Calculated)
07:45AM -23.8067 133.9022 122° Southeast  Level Estimated
07:46AM -23.8067 133.9022 122° Southeast  Level Estimated
07:47AM -23.8067 133.9022 31° Northeast  Level Estimated
07:48AM -23.8067 133.9022 31° Northeast  Level Estimated
07:49AM -23.8067 133.9022 31° Northeast  Level Estimated
07:50AM -23.8067 133.9022 122° Southeast  Level Estimated
07:51AM -23.8067 133.9022 31° Northeast  Level Estimated
07:52AM -23.8067 133.9022 31° Northeast  Level Estimated
07:53AM -23.8067 133.9022 31° Northeast  Level Estimated
07:54AM -23.8067 133.9022 31° Northeast  Level Estimated
07:55AM -23.8067 133.9022 31° Northeast  Level Estimated
07:56AM -23.8067 133.9022 31° Northeast  Level Estimated
07:57AM -23.8067 133.9022 31° Northeast  Level Estimated
07:58AM -23.8067 133.9022 31° Northeast  Level Estimated
07:59AM -23.8067 133.9022 31° Northeast  Level Estimated
08:00AM -23.8067 133.9022 31° Northeast  Level Estimated
08:01AM -23.8067 133.9022 31° Northeast  Level Estimated
08:02AM -23.8067 133.9022 31° Northeast  Level Estimated
08:03AM -23.8067 133.9022 31° Northeast  Level Estimated
08:04AM -23.8067 133.9022 31° Northeast  Level Estimated
08:05AM -23.8067 133.9022 31° Northeast  Level Estimated
08:06AM -23.8067 133.9022 31° Northeast  Level Estimated
08:07AM -23.8067 133.9022 31° Northeast  Level Estimated
08:08AM -23.8067 133.9022 31° Northeast  Level Estimated
08:09AM -23.8067 133.9022 31° Northeast  Level Estimated
08:10AM -23.8067 133.9022 31° Northeast  Level Estimated
08:11AM -23.8067 133.9022 31° Northeast  Level Estimated
08:12AM -23.8067 133.9022 31° Northeast  Level Estimated